sensor_id;sensor_type;location;lat;lon;timestamp;P1;durP1;ratioP1;P2;durP2;ratioP2
2652;SDS011;1336;48.692;9.144;2022-09-12T05:00:50;8.97;;;8.13;;
2652;SDS011;1336;48.692;9.144;2022-09-12T05:01:42;7.43;;;6.82;;
2652;SDS011;1336;48.692;9.144;2022-09-12T05:02:33;7.60;;;6.53;;
2652;SDS011;1336;48.692;9.144;2022-09-12T05:03:26;8.05;;;7.35;;
2652;SDS011;1336;48.692;9.144;2022-09-12T05:04:17;8.13;;;7.32;;
2652;SDS011;1336;48.692;9.144;2022-09-12T05:05:09;7.20;;;6.60;;
2652;SDS011;1336;48.692;9.144;2022-09-12T05:06:01;7.70;;;7.10;;
2652;SDS011;1336;48.692;9.144;2022-09-12T05:06:53;7.85;;;7.25;;
2652;SDS011;1336;48.692;9.144;2022-09-12T05:07:44;7.90;;;7.20;;
2652;SDS011;1336;48.692;9.144;2022-09-12T05:08:36;7.35;;;6.70;;
2652;SDS011;1336;48.692;9.144;2022-09-12T05:09:26;7.70;;;7.00;;
2652;SDS011;1336;48.692;9.144;2022-09-12T05:10:18;7.78;;;7.15;;
2652;SDS011;1336;48.692;9.144;2022-09-12T05:11:09;7.50;;;6.90;;
2652;SDS011;1336;48.692;9.144;2022-09-12T05:12:03;7.40;;;6.80;;
2652;SDS011;1336;48.692;9.144;2022-09-12T05:12:54;7.25;;;6.65;;
2652;SDS011;1336;48.692;9.144;2022-09-12T05:13:46;8.00;;;7.30;;
2652;SDS011;1336;48.692;9.144;2022-09-12T05:14:37;8.18;;;7.45;;
2652;SDS011;1336;48.692;9.144;2022-09-12T05:15:29;8.15;;;7.50;;
2652;SDS011;1336;48.692;9.144;2022-09-12T05:16:22;8.30;;;7.63;;
2652;SDS011;1336;48.692;9.144;2022-09-12T05:17:14;6.95;;;6.45;;
2652;SDS011;1336;48.692;9.144;2022-09-12T05:18:05;8.00;;;7.30;;
2652;SDS011;1336;48.692;9.144;2022-09-12T05:18:57;7.30;;;6.70;;
2652;SDS011;1336;48.692;9.144;2022-09-12T05:19:48;7.50;;;6.82;;
2652;SDS011;1336;48.692;9.144;2022-09-12T05:20:40;7.75;;;7.05;;
2652;SDS011;1336;48.692;9.144;2022-09-12T05:21:30;7.53;;;6.60;;
2652;SDS011;1336;48.692;9.144;2022-09-12T05:22:22;8.00;;;7.30;;
2652;SDS011;1336;48.692;9.144;2022-09-12T05:23:13;8.03;;;7.33;;
2652;SDS011;1336;48.692;9.144;2022-09-12T05:24:05;8.10;;;7.50;;
2652;SDS011;1336;48.692;9.144;2022-09-12T05:24:56;7.50;;;6.90;;
2652;SDS011;1336;48.692;9.144;2022-09-12T05:25:47;8.43;;;7.77;;
2652;SDS011;1336;48.692;9.144;2022-09-12T05:26:41;8.25;;;7.43;;
2652;SDS011;1336;48.692;9.144;2022-09-12T05:27:32;8.40;;;7.70;;
2652;SDS011;1336;48.692;9.144;2022-09-12T05:28:24;8.07;;;7.35;;
2652;SDS011;1336;48.692;9.144;2022-09-12T05:29:18;7.97;;;7.30;;
2652;SDS011;1336;48.692;9.144;2022-09-12T05:30:10;8.38;;;7.65;;
2652;SDS011;1336;48.692;9.144;2022-09-12T05:31:02;7.20;;;6.60;;
2652;SDS011;1336;48.692;9.144;2022-09-12T05:31:56;7.95;;;7.35;;
2652;SDS011;1336;48.692;9.144;2022-09-12T05:32:47;8.07;;;7.38;;
2652;SDS011;1336;48.692;9.144;2022-09-12T05:33:39;7.43;;;6.80;;
2652;SDS011;1336;48.692;9.144;2022-09-12T05:34:31;7.32;;;6.65;;
2652;SDS011;1336;48.692;9.144;2022-09-12T05:35:23;8.48;;;7.88;;
2652;SDS011;1336;48.692;9.144;2022-09-12T05:36:14;8.07;;;7.47;;
2652;SDS011;1336;48.692;9.144;2022-09-12T05:37:07;8.07;;;7.40;;
2652;SDS011;1336;48.692;9.144;2022-09-12T05:37:58;7.30;;;6.60;;
2652;SDS011;1336;48.692;9.144;2022-09-12T05:38:50;7.70;;;6.38;;
2652;SDS011;1336;48.692;9.144;2022-09-12T05:39:41;7.07;;;6.35;;
2652;SDS011;1336;48.692;9.144;2022-09-12T05:40:33;7.03;;;6.43;;
2652;SDS011;1336;48.692;9.144;2022-09-12T05:41:24;7.40;;;6.70;;
2652;SDS011;1336;48.692;9.144;2022-09-12T05:42:18;7.18;;;6.57;;
2652;SDS011;1336;48.692;9.144;2022-09-12T05:43:09;7.10;;;6.60;;
2652;SDS011;1336;48.692;9.144;2022-09-12T05:44:02;6.20;;;5.70;;
2652;SDS011;1336;48.692;9.144;2022-09-12T05:44:53;6.78;;;6.07;;
2652;SDS011;1336;48.692;9.144;2022-09-12T05:45:46;8.60;;;6.75;;
2652;SDS011;1336;48.692;9.144;2022-09-12T05:46:37;7.57;;;6.87;;
2652;SDS011;1336;48.692;9.144;2022-09-12T05:47:32;8.40;;;6.22;;
2652;SDS011;1336;48.692;9.144;2022-09-12T05:48:23;9.38;;;6.55;;
2652;SDS011;1336;48.692;9.144;2022-09-12T05:49:14;7.35;;;6.68;;
2652;SDS011;1336;48.692;9.144;2022-09-12T05:50:06;7.93;;;7.20;;
2652;SDS011;1336;48.692;9.144;2022-09-12T05:51:00;6.57;;;6.05;;
2652;SDS011;1336;48.692;9.144;2022-09-12T05:51:51;5.90;;;5.40;;
2652;SDS011;1336;48.692;9.144;2022-09-12T05:52:43;6.40;;;5.90;;
2652;SDS011;1336;48.692;9.144;2022-09-12T05:53:34;7.30;;;6.00;;
2652;SDS011;1336;48.692;9.144;2022-09-12T05:54:27;7.05;;;6.45;;
2652;SDS011;1336;48.692;9.144;2022-09-12T05:55:18;7.20;;;6.47;;
2652;SDS011;1336;48.692;9.144;2022-09-12T05:56:10;6.75;;;6.25;;
2652;SDS011;1336;48.692;9.144;2022-09-12T05:57:03;6.45;;;5.95;;
2652;SDS011;1336;48.692;9.144;2022-09-12T05:57:55;7.00;;;6.40;;
2652;SDS011;1336;48.692;9.144;2022-09-12T05:58:46;6.93;;;6.33;;
2652;SDS011;1336;48.692;9.144;2022-09-12T05:59:42;7.47;;;6.88;;
2652;SDS011;1336;48.692;9.144;2022-09-12T06:00:32;8.27;;;6.30;;
2652;SDS011;1336;48.692;9.144;2022-09-12T06:01:25;7.10;;;6.38;;
2652;SDS011;1336;48.692;9.144;2022-09-12T06:02:16;7.05;;;6.35;;
2652;SDS011;1336;48.692;9.144;2022-09-12T06:03:09;7.13;;;6.53;;
2652;SDS011;1336;48.692;9.144;2022-09-12T06:04:00;7.03;;;6.43;;
2652;SDS011;1336;48.692;9.144;2022-09-12T06:04:54;7.70;;;7.10;;
2652;SDS011;1336;48.692;9.144;2022-09-12T06:05:44;8.57;;;6.37;;
2652;SDS011;1336;48.692;9.144;2022-09-12T06:06:37;6.55;;;5.90;;
2652;SDS011;1336;48.692;9.144;2022-09-12T06:07:30;7.63;;;6.82;;
2652;SDS011;1336;48.692;9.144;2022-09-12T06:08:22;7.35;;;6.60;;
2652;SDS011;1336;48.692;9.144;2022-09-12T06:09:13;7.13;;;6.50;;
2652;SDS011;1336;48.692;9.144;2022-09-12T06:10:06;7.70;;;7.03;;
2652;SDS011;1336;48.692;9.144;2022-09-12T06:10:59;7.38;;;6.45;;
2652;SDS011;1336;48.692;9.144;2022-09-12T06:11:51;7.75;;;7.05;;
2652;SDS011;1336;48.692;9.144;2022-09-12T06:12:43;7.43;;;6.93;;
2652;SDS011;1336;48.692;9.144;2022-09-12T06:13:34;7.57;;;6.90;;
2652;SDS011;1336;48.692;9.144;2022-09-12T06:14:26;6.88;;;6.28;;
2652;SDS011;1336;48.692;9.144;2022-09-12T06:15:17;7.70;;;7.03;;
2652;SDS011;1336;48.692;9.144;2022-09-12T06:16:09;9.83;;;7.10;;
2652;SDS011;1336;48.692;9.144;2022-09-12T06:17:02;7.68;;;6.97;;
2652;SDS011;1336;48.692;9.144;2022-09-12T06:17:53;8.35;;;7.57;;
2652;SDS011;1336;48.692;9.144;2022-09-12T06:18:47;8.75;;;6.82;;
2652;SDS011;1336;48.692;9.144;2022-09-12T06:19:38;8.32;;;7.53;;
2652;SDS011;1336;48.692;9.144;2022-09-12T06:20:30;7.60;;;6.90;;
2652;SDS011;1336;48.692;9.144;2022-09-12T06:21:21;14.23;;;8.00;;
2652;SDS011;1336;48.692;9.144;2022-09-12T06:22:14;8.57;;;7.70;;
2652;SDS011;1336;48.692;9.144;2022-09-12T06:23:05;8.20;;;7.50;;
2652;SDS011;1336;48.692;9.144;2022-09-12T06:23:57;8.30;;;7.60;;
2652;SDS011;1336;48.692;9.144;2022-09-12T06:24:48;8.60;;;7.82;;
2652;SDS011;1336;48.692;9.144;2022-09-12T06:25:44;12.13;;;8.13;;
2652;SDS011;1336;48.692;9.144;2022-09-12T06:26:36;9.07;;;8.30;;
2652;SDS011;1336;48.692;9.144;2022-09-12T06:27:28;8.43;;;7.55;;
2652;SDS011;1336;48.692;9.144;2022-09-12T06:28:19;8.60;;;7.90;;
2652;SDS011;1336;48.692;9.144;2022-09-12T06:29:10;9.45;;;8.40;;
2652;SDS011;1336;48.692;9.144;2022-09-12T06:30:02;9.35;;;8.55;;
2652;SDS011;1336;48.692;9.144;2022-09-12T06:31:00;9.02;;;8.02;;
2652;SDS011;1336;48.692;9.144;2022-09-12T06:31:51;9.23;;;8.43;;
2652;SDS011;1336;48.692;9.144;2022-09-12T06:32:43;9.38;;;8.60;;
2652;SDS011;1336;48.692;9.144;2022-09-12T06:33:35;10.13;;;9.30;;
2652;SDS011;1336;48.692;9.144;2022-09-12T06:34:29;10.50;;;9.60;;
2652;SDS011;1336;48.692;9.144;2022-09-12T06:35:20;9.85;;;8.95;;
2652;SDS011;1336;48.692;9.144;2022-09-12T06:36:13;11.05;;;10.05;;
2652;SDS011;1336;48.692;9.144;2022-09-12T06:37:08;10.20;;;9.40;;
2652;SDS011;1336;48.692;9.144;2022-09-12T06:38:00;10.98;;;10.05;;
2652;SDS011;1336;48.692;9.144;2022-09-12T06:38:55;10.30;;;9.40;;
2652;SDS011;1336;48.692;9.144;2022-09-12T06:39:47;11.15;;;10.15;;
2652;SDS011;1336;48.692;9.144;2022-09-12T06:40:40;9.60;;;8.77;;
2652;SDS011;1336;48.692;9.144;2022-09-12T06:41:33;10.40;;;9.50;;
2652;SDS011;1336;48.692;9.144;2022-09-12T06:42:24;9.23;;;8.43;;
2652;SDS011;1336;48.692;9.144;2022-09-12T06:43:17;10.32;;;9.43;;
2652;SDS011;1336;48.692;9.144;2022-09-12T06:44:09;9.52;;;8.63;;
2652;SDS011;1336;48.692;9.144;2022-09-12T06:45:03;8.88;;;8.10;;
2652;SDS011;1336;48.692;9.144;2022-09-12T06:45:54;8.63;;;7.75;;
2652;SDS011;1336;48.692;9.144;2022-09-12T06:46:47;9.63;;;8.73;;
2652;SDS011;1336;48.692;9.144;2022-09-12T06:47:38;9.35;;;8.55;;
2652;SDS011;1336;48.692;9.144;2022-09-12T06:48:30;9.43;;;8.63;;
2652;SDS011;1336;48.692;9.144;2022-09-12T06:49:21;9.00;;;8.30;;
2652;SDS011;1336;48.692;9.144;2022-09-12T06:50:14;11.88;;;9.55;;
2652;SDS011;1336;48.692;9.144;2022-09-12T06:51:05;10.82;;;9.88;;
2652;SDS011;1336;48.692;9.144;2022-09-12T06:51:59;10.90;;;9.80;;
2652;SDS011;1336;48.692;9.144;2022-09-12T06:52:50;9.40;;;8.60;;
2652;SDS011;1336;48.692;9.144;2022-09-12T06:53:42;9.50;;;8.75;;
2652;SDS011;1336;48.692;9.144;2022-09-12T06:54:34;10.35;;;9.48;;
2652;SDS011;1336;48.692;9.144;2022-09-12T06:55:25;9.95;;;9.15;;
2652;SDS011;1336;48.692;9.144;2022-09-12T06:56:17;10.20;;;9.23;;
2652;SDS011;1336;48.692;9.144;2022-09-12T06:57:11;9.48;;;8.68;;
2652;SDS011;1336;48.692;9.144;2022-09-12T06:58:02;9.40;;;8.57;;
2652;SDS011;1336;48.692;9.144;2022-09-12T06:58:54;9.50;;;8.80;;
2652;SDS011;1336;48.692;9.144;2022-09-12T06:59:46;9.43;;;8.70;;
2652;SDS011;1336;48.692;9.144;2022-09-12T07:00:38;9.82;;;9.02;;
2652;SDS011;1336;48.692;9.144;2022-09-12T07:01:30;9.60;;;8.80;;
2652;SDS011;1336;48.692;9.144;2022-09-12T07:02:22;9.50;;;8.70;;
2652;SDS011;1336;48.692;9.144;2022-09-12T07:03:14;9.20;;;8.40;;
2652;SDS011;1336;48.692;9.144;2022-09-12T07:04:06;8.63;;;7.93;;
2652;SDS011;1336;48.692;9.144;2022-09-12T07:04:57;9.07;;;8.27;;
2652;SDS011;1336;48.692;9.144;2022-09-12T07:05:50;9.20;;;8.35;;
2652;SDS011;1336;48.692;9.144;2022-09-12T07:06:41;8.40;;;7.70;;
2652;SDS011;1336;48.692;9.144;2022-09-12T07:07:33;8.43;;;7.57;;
2652;SDS011;1336;48.692;9.144;2022-09-12T07:08:26;9.75;;;8.20;;
2652;SDS011;1336;48.692;9.144;2022-09-12T07:09:20;8.50;;;7.70;;
2652;SDS011;1336;48.692;9.144;2022-09-12T07:10:11;8.57;;;7.77;;
2652;SDS011;1336;48.692;9.144;2022-09-12T07:11:10;9.52;;;8.73;;
2652;SDS011;1336;48.692;9.144;2022-09-12T07:12:02;8.50;;;7.80;;
2652;SDS011;1336;48.692;9.144;2022-09-12T07:12:55;9.88;;;9.00;;
2652;SDS011;1336;48.692;9.144;2022-09-12T07:13:46;10.80;;;8.10;;
2652;SDS011;1336;48.692;9.144;2022-09-12T07:14:39;9.73;;;8.55;;
2652;SDS011;1336;48.692;9.144;2022-09-12T07:15:30;14.65;;;9.70;;
2652;SDS011;1336;48.692;9.144;2022-09-12T07:16:24;8.88;;;8.07;;
2652;SDS011;1336;48.692;9.144;2022-09-12T07:17:15;9.27;;;8.45;;
2652;SDS011;1336;48.692;9.144;2022-09-12T07:18:07;9.27;;;8.48;;
2652;SDS011;1336;48.692;9.144;2022-09-12T07:19:00;9.30;;;8.57;;
2652;SDS011;1336;48.692;9.144;2022-09-12T07:19:53;9.57;;;8.68;;
2652;SDS011;1336;48.692;9.144;2022-09-12T07:20:44;9.27;;;8.47;;
2652;SDS011;1336;48.692;9.144;2022-09-12T07:21:37;9.57;;;8.63;;
2652;SDS011;1336;48.692;9.144;2022-09-12T07:22:29;8.98;;;8.18;;
2652;SDS011;1336;48.692;9.144;2022-09-12T07:23:21;8.85;;;8.15;;
2652;SDS011;1336;48.692;9.144;2022-09-12T07:24:12;9.37;;;8.60;;
2652;SDS011;1336;48.692;9.144;2022-09-12T07:25:04;8.80;;;8.10;;
2652;SDS011;1336;48.692;9.144;2022-09-12T07:25:56;9.27;;;8.57;;
2652;SDS011;1336;48.692;9.144;2022-09-12T07:26:49;9.02;;;8.23;;
2652;SDS011;1336;48.692;9.144;2022-09-12T07:27:40;8.35;;;7.75;;
2652;SDS011;1336;48.692;9.144;2022-09-12T07:28:32;9.80;;;8.80;;
2652;SDS011;1336;48.692;9.144;2022-09-12T07:29:24;7.93;;;7.10;;
2652;SDS011;1336;48.692;9.144;2022-09-12T07:30:15;8.10;;;7.40;;
2652;SDS011;1336;48.692;9.144;2022-09-12T07:31:08;9.00;;;8.10;;
2652;SDS011;1336;48.692;9.144;2022-09-12T07:32:00;8.98;;;8.05;;
2652;SDS011;1336;48.692;9.144;2022-09-12T07:32:52;8.80;;;7.90;;
2652;SDS011;1336;48.692;9.144;2022-09-12T07:33:43;7.85;;;7.25;;
2652;SDS011;1336;48.692;9.144;2022-09-12T07:34:34;8.13;;;7.35;;
2652;SDS011;1336;48.692;9.144;2022-09-12T07:35:25;6.90;;;6.40;;
2652;SDS011;1336;48.692;9.144;2022-09-12T07:36:18;7.07;;;6.47;;
2652;SDS011;1336;48.692;9.144;2022-09-12T07:37:11;7.63;;;7.03;;
2652;SDS011;1336;48.692;9.144;2022-09-12T07:38:02;7.90;;;7.18;;
2652;SDS011;1336;48.692;9.144;2022-09-12T07:38:53;7.23;;;6.53;;
2652;SDS011;1336;48.692;9.144;2022-09-12T07:39:46;7.28;;;6.70;;
2652;SDS011;1336;48.692;9.144;2022-09-12T07:40:37;7.50;;;6.90;;
2652;SDS011;1336;48.692;9.144;2022-09-12T07:41:30;7.28;;;6.70;;
2652;SDS011;1336;48.692;9.144;2022-09-12T07:42:22;6.72;;;6.20;;
2652;SDS011;1336;48.692;9.144;2022-09-12T07:43:14;6.15;;;5.65;;
2652;SDS011;1336;48.692;9.144;2022-09-12T07:44:05;7.00;;;6.40;;
2652;SDS011;1336;48.692;9.144;2022-09-12T07:44:56;7.07;;;6.47;;
2652;SDS011;1336;48.692;9.144;2022-09-12T07:45:47;7.47;;;6.87;;
2652;SDS011;1336;48.692;9.144;2022-09-12T07:46:44;7.60;;;6.90;;
2652;SDS011;1336;48.692;9.144;2022-09-12T07:47:35;6.83;;;6.23;;
2652;SDS011;1336;48.692;9.144;2022-09-12T07:48:26;6.90;;;6.32;;
2652;SDS011;1336;48.692;9.144;2022-09-12T07:49:17;8.53;;;6.87;;
2652;SDS011;1336;48.692;9.144;2022-09-12T07:50:09;6.72;;;6.13;;
2652;SDS011;1336;48.692;9.144;2022-09-12T07:51:00;7.55;;;6.85;;
2652;SDS011;1336;48.692;9.144;2022-09-12T07:51:54;5.95;;;5.45;;
2652;SDS011;1336;48.692;9.144;2022-09-12T07:52:46;6.30;;;5.78;;
2652;SDS011;1336;48.692;9.144;2022-09-12T07:53:40;6.85;;;6.35;;
2652;SDS011;1336;48.692;9.144;2022-09-12T07:54:32;6.63;;;6.03;;
2652;SDS011;1336;48.692;9.144;2022-09-12T07:55:23;6.72;;;6.13;;
2652;SDS011;1336;48.692;9.144;2022-09-12T07:56:15;6.40;;;5.90;;
2652;SDS011;1336;48.692;9.144;2022-09-12T07:57:07;6.90;;;6.40;;
2652;SDS011;1336;48.692;9.144;2022-09-12T07:57:59;6.45;;;5.95;;
2652;SDS011;1336;48.692;9.144;2022-09-12T07:58:49;6.50;;;6.00;;
2652;SDS011;1336;48.692;9.144;2022-09-12T07:59:41;6.20;;;5.70;;
2652;SDS011;1336;48.692;9.144;2022-09-12T08:00:32;6.70;;;6.20;;
2652;SDS011;1336;48.692;9.144;2022-09-12T08:01:25;7.10;;;6.40;;
2652;SDS011;1336;48.692;9.144;2022-09-12T08:02:16;6.15;;;5.55;;
2652;SDS011;1336;48.692;9.144;2022-09-12T08:03:08;6.50;;;6.00;;
2652;SDS011;1336;48.692;9.144;2022-09-12T08:03:59;6.07;;;5.57;;
2652;SDS011;1336;48.692;9.144;2022-09-12T08:04:52;7.00;;;6.40;;
2652;SDS011;1336;48.692;9.144;2022-09-12T08:05:43;6.47;;;5.97;;
2652;SDS011;1336;48.692;9.144;2022-09-12T08:06:35;6.88;;;5.82;;
2652;SDS011;1336;48.692;9.144;2022-09-12T08:07:26;7.17;;;6.00;;
2652;SDS011;1336;48.692;9.144;2022-09-12T08:08:19;6.95;;;6.25;;
2652;SDS011;1336;48.692;9.144;2022-09-12T08:09:09;6.07;;;5.57;;
2652;SDS011;1336;48.692;9.144;2022-09-12T08:10:04;5.90;;;5.30;;
2652;SDS011;1336;48.692;9.144;2022-09-12T08:10:56;5.78;;;5.28;;
2652;SDS011;1336;48.692;9.144;2022-09-12T08:11:48;6.18;;;5.55;;
2652;SDS011;1336;48.692;9.144;2022-09-12T08:12:39;5.20;;;4.80;;
2652;SDS011;1336;48.692;9.144;2022-09-12T08:13:31;5.80;;;5.30;;
2652;SDS011;1336;48.692;9.144;2022-09-12T08:14:25;5.60;;;5.20;;
2652;SDS011;1336;48.692;9.144;2022-09-12T08:15:17;5.55;;;5.05;;
2652;SDS011;1336;48.692;9.144;2022-09-12T08:16:10;5.78;;;5.18;;
2652;SDS011;1336;48.692;9.144;2022-09-12T08:17:03;6.00;;;5.40;;
2652;SDS011;1336;48.692;9.144;2022-09-12T08:17:55;5.25;;;4.70;;
2652;SDS011;1336;48.692;9.144;2022-09-12T08:18:47;5.03;;;4.63;;
2652;SDS011;1336;48.692;9.144;2022-09-12T08:19:38;5.07;;;4.68;;
2652;SDS011;1336;48.692;9.144;2022-09-12T08:20:30;5.50;;;5.10;;
2652;SDS011;1336;48.692;9.144;2022-09-12T08:21:22;4.60;;;4.30;;
2652;SDS011;1336;48.692;9.144;2022-09-12T08:22:16;4.75;;;4.45;;
2652;SDS011;1336;48.692;9.144;2022-09-12T08:23:10;5.07;;;4.65;;
2652;SDS011;1336;48.692;9.144;2022-09-12T08:24:04;4.90;;;4.60;;
2652;SDS011;1336;48.692;9.144;2022-09-12T08:24:55;4.80;;;4.45;;
2652;SDS011;1336;48.692;9.144;2022-09-12T08:25:47;4.50;;;4.20;;
2652;SDS011;1336;48.692;9.144;2022-09-12T08:26:39;4.60;;;4.20;;
2652;SDS011;1336;48.692;9.144;2022-09-12T08:27:30;5.38;;;4.70;;
2652;SDS011;1336;48.692;9.144;2022-09-12T08:28:21;4.40;;;4.10;;
2652;SDS011;1336;48.692;9.144;2022-09-12T08:29:13;4.45;;;4.15;;
2652;SDS011;1336;48.692;9.144;2022-09-12T08:30:04;4.40;;;4.10;;
2652;SDS011;1336;48.692;9.144;2022-09-12T08:30:59;4.00;;;3.60;;
2652;SDS011;1336;48.692;9.144;2022-09-12T08:31:50;4.43;;;4.13;;
2652;SDS011;1336;48.692;9.144;2022-09-12T08:32:41;5.35;;;4.95;;
2652;SDS011;1336;48.692;9.144;2022-09-12T08:33:33;5.20;;;4.80;;
2652;SDS011;1336;48.692;9.144;2022-09-12T08:34:25;5.30;;;4.80;;
2652;SDS011;1336;48.692;9.144;2022-09-12T08:35:15;5.70;;;5.00;;
2652;SDS011;1336;48.692;9.144;2022-09-12T08:36:08;4.70;;;4.35;;
2652;SDS011;1336;48.692;9.144;2022-09-12T08:37:01;4.60;;;4.30;;
2652;SDS011;1336;48.692;9.144;2022-09-12T08:37:53;5.18;;;4.78;;
2652;SDS011;1336;48.692;9.144;2022-09-12T08:38:44;4.40;;;4.10;;
2652;SDS011;1336;48.692;9.144;2022-09-12T08:39:38;4.88;;;4.47;;
2652;SDS011;1336;48.692;9.144;2022-09-12T08:40:29;4.90;;;4.50;;
2652;SDS011;1336;48.692;9.144;2022-09-12T08:41:22;5.25;;;4.85;;
2652;SDS011;1336;48.692;9.144;2022-09-12T08:42:19;5.30;;;4.90;;
2652;SDS011;1336;48.692;9.144;2022-09-12T08:43:26;5.07;;;4.68;;
2652;SDS011;1336;48.692;9.144;2022-09-12T08:44:49;5.68;;;4.75;;
2652;SDS011;1336;48.692;9.144;2022-09-12T08:45:57;5.68;;;5.13;;
2652;SDS011;1336;48.692;9.144;2022-09-12T08:46:58;5.40;;;4.90;;
2652;SDS011;1336;48.692;9.144;2022-09-12T08:48:07;6.03;;;5.45;;
2652;SDS011;1336;48.692;9.144;2022-09-12T08:49:00;5.50;;;5.10;;
2652;SDS011;1336;48.692;9.144;2022-09-12T08:49:56;5.47;;;5.07;;
2652;SDS011;1336;48.692;9.144;2022-09-12T08:50:51;5.72;;;5.22;;
2652;SDS011;1336;48.692;9.144;2022-09-12T08:51:43;4.70;;;4.30;;
2652;SDS011;1336;48.692;9.144;2022-09-12T08:52:35;4.63;;;4.32;;
2652;SDS011;1336;48.692;9.144;2022-09-12T08:53:31;7.32;;;4.32;;
2652;SDS011;1336;48.692;9.144;2022-09-12T08:54:27;5.53;;;5.00;;
2652;SDS011;1336;48.692;9.144;2022-09-12T08:55:26;4.95;;;4.65;;
2652;SDS011;1336;48.692;9.144;2022-09-12T08:56:23;4.97;;;4.55;;
2652;SDS011;1336;48.692;9.144;2022-09-12T08:57:16;5.45;;;4.93;;
2652;SDS011;1336;48.692;9.144;2022-09-12T08:58:10;4.47;;;4.10;;
2652;SDS011;1336;48.692;9.144;2022-09-12T08:59:07;4.40;;;4.10;;
2652;SDS011;1336;48.692;9.144;2022-09-12T08:59:57;5.22;;;4.68;;
2652;SDS011;1336;48.692;9.144;2022-09-12T09:00:54;4.15;;;3.85;;
2652;SDS011;1336;48.692;9.144;2022-09-12T09:01:50;5.20;;;3.90;;
2652;SDS011;1336;48.692;9.144;2022-09-12T09:04:15;7.70;;;5.60;;
2652;SDS011;1336;48.692;9.144;2022-09-12T09:05:20;18.33;;;6.47;;
2652;SDS011;1336;48.692;9.144;2022-09-12T09:06:23;20.95;;;7.03;;
2652;SDS011;1336;48.692;9.144;2022-09-12T09:08:02;9.50;;;4.85;;
2652;SDS011;1336;48.692;9.144;2022-09-12T09:09:03;3.78;;;3.47;;
2652;SDS011;1336;48.692;9.144;2022-09-12T09:10:02;4.22;;;3.85;;
2652;SDS011;1336;48.692;9.144;2022-09-12T09:11:08;5.20;;;4.30;;
2652;SDS011;1336;48.692;9.144;2022-09-12T09:12:09;4.97;;;4.05;;
2652;SDS011;1336;48.692;9.144;2022-09-12T09:13:10;4.03;;;3.50;;
2652;SDS011;1336;48.692;9.144;2022-09-12T09:14:38;4.65;;;4.25;;
2652;SDS011;1336;48.692;9.144;2022-09-12T09:15:40;4.10;;;3.80;;
2652;SDS011;1336;48.692;9.144;2022-09-12T09:16:40;3.20;;;3.00;;
2652;SDS011;1336;48.692;9.144;2022-09-12T09:17:36;3.55;;;3.35;;
2652;SDS011;1336;48.692;9.144;2022-09-12T09:18:30;3.70;;;3.42;;
2652;SDS011;1336;48.692;9.144;2022-09-12T09:19:26;3.38;;;3.00;;
2652;SDS011;1336;48.692;9.144;2022-09-12T09:20:24;3.50;;;3.22;;
2652;SDS011;1336;48.692;9.144;2022-09-12T09:21:21;4.10;;;3.65;;
2652;SDS011;1336;48.692;9.144;2022-09-12T09:22:19;3.50;;;3.30;;
2652;SDS011;1336;48.692;9.144;2022-09-12T09:23:20;3.60;;;3.30;;
2652;SDS011;1336;48.692;9.144;2022-09-12T09:24:14;4.20;;;3.80;;
2652;SDS011;1336;48.692;9.144;2022-09-12T09:25:11;3.17;;;2.97;;
2652;SDS011;1336;48.692;9.144;2022-09-12T09:26:09;3.13;;;2.92;;
2652;SDS011;1336;48.692;9.144;2022-09-12T09:27:05;3.03;;;2.83;;
2652;SDS011;1336;48.692;9.144;2022-09-12T09:28:03;5.38;;;3.47;;
2652;SDS011;1336;48.692;9.144;2022-09-12T09:29:03;3.00;;;2.80;;
2652;SDS011;1336;48.692;9.144;2022-09-12T09:30:01;3.05;;;2.85;;
2652;SDS011;1336;48.692;9.144;2022-09-12T09:30:53;3.20;;;3.00;;
2652;SDS011;1336;48.692;9.144;2022-09-12T09:31:45;3.15;;;2.92;;
2652;SDS011;1336;48.692;9.144;2022-09-12T09:32:39;4.60;;;3.45;;
2652;SDS011;1336;48.692;9.144;2022-09-12T09:33:31;3.30;;;3.00;;
2652;SDS011;1336;48.692;9.144;2022-09-12T09:34:26;3.00;;;2.75;;
2652;SDS011;1336;48.692;9.144;2022-09-12T09:35:21;3.50;;;3.20;;
2652;SDS011;1336;48.692;9.144;2022-09-12T09:36:20;2.80;;;2.60;;
2652;SDS011;1336;48.692;9.144;2022-09-12T09:37:14;2.80;;;2.60;;
2652;SDS011;1336;48.692;9.144;2022-09-12T09:38:13;2.78;;;2.58;;
2652;SDS011;1336;48.692;9.144;2022-09-12T09:39:15;3.55;;;3.25;;
2652;SDS011;1336;48.692;9.144;2022-09-12T09:40:16;3.38;;;2.90;;
2652;SDS011;1336;48.692;9.144;2022-09-12T09:41:17;3.20;;;3.00;;
2652;SDS011;1336;48.692;9.144;2022-09-12T09:42:18;2.70;;;2.40;;
2652;SDS011;1336;48.692;9.144;2022-09-12T09:43:17;2.45;;;2.35;;
2652;SDS011;1336;48.692;9.144;2022-09-12T09:44:12;2.95;;;2.75;;
2652;SDS011;1336;48.692;9.144;2022-09-12T09:45:10;3.20;;;2.90;;
2652;SDS011;1336;48.692;9.144;2022-09-12T09:46:05;3.45;;;2.47;;
2652;SDS011;1336;48.692;9.144;2022-09-12T09:46:57;2.60;;;2.50;;
2652;SDS011;1336;48.692;9.144;2022-09-12T09:47:50;2.60;;;2.40;;
2652;SDS011;1336;48.692;9.144;2022-09-12T09:48:48;2.30;;;2.20;;
2652;SDS011;1336;48.692;9.144;2022-09-12T09:49:42;2.42;;;2.33;;
2652;SDS011;1336;48.692;9.144;2022-09-12T09:50:33;2.65;;;2.45;;
2652;SDS011;1336;48.692;9.144;2022-09-12T09:51:37;2.45;;;2.25;;
2652;SDS011;1336;48.692;9.144;2022-09-12T09:52:33;2.67;;;2.47;;
2652;SDS011;1336;48.692;9.144;2022-09-12T09:54:39;2.92;;;2.58;;
2652;SDS011;1336;48.692;9.144;2022-09-12T09:55:38;3.92;;;2.65;;
2652;SDS011;1336;48.692;9.144;2022-09-12T09:56:35;2.58;;;2.38;;
2652;SDS011;1336;48.692;9.144;2022-09-12T09:57:40;2.70;;;2.55;;
2652;SDS011;1336;48.692;9.144;2022-09-12T09:58:34;2.75;;;2.55;;
2652;SDS011;1336;48.692;9.144;2022-09-12T09:59:28;2.90;;;2.70;;
2652;SDS011;1336;48.692;9.144;2022-09-12T10:00:26;2.63;;;2.42;;
2652;SDS011;1336;48.692;9.144;2022-09-12T10:01:21;9.43;;;2.72;;
2652;SDS011;1336;48.692;9.144;2022-09-12T10:02:18;3.08;;;2.20;;
2652;SDS011;1336;48.692;9.144;2022-09-12T10:03:23;2.50;;;2.30;;
2652;SDS011;1336;48.692;9.144;2022-09-12T10:04:22;2.88;;;2.67;;
2652;SDS011;1336;48.692;9.144;2022-09-12T10:05:17;2.60;;;2.40;;
2652;SDS011;1336;48.692;9.144;2022-09-12T10:06:20;2.40;;;2.20;;
2652;SDS011;1336;48.692;9.144;2022-09-12T10:07:18;2.60;;;2.40;;
2652;SDS011;1336;48.692;9.144;2022-09-12T10:08:11;2.50;;;2.30;;
2652;SDS011;1336;48.692;9.144;2022-09-12T10:09:18;2.65;;;2.40;;
2652;SDS011;1336;48.692;9.144;2022-09-12T10:10:17;2.60;;;2.40;;
2652;SDS011;1336;48.692;9.144;2022-09-12T10:11:16;2.20;;;2.10;;
2652;SDS011;1336;48.692;9.144;2022-09-12T10:12:25;3.10;;;2.80;;
2652;SDS011;1336;48.692;9.144;2022-09-12T10:13:21;2.85;;;2.65;;
2652;SDS011;1336;48.692;9.144;2022-09-12T10:14:31;2.70;;;2.50;;
2652;SDS011;1336;48.692;9.144;2022-09-12T10:15:27;2.25;;;2.05;;
2652;SDS011;1336;48.692;9.144;2022-09-12T10:16:25;2.90;;;2.40;;
2652;SDS011;1336;48.692;9.144;2022-09-12T10:17:22;2.38;;;2.15;;
2652;SDS011;1336;48.692;9.144;2022-09-12T10:18:22;2.40;;;2.20;;
2652;SDS011;1336;48.692;9.144;2022-09-12T10:19:32;2.40;;;2.20;;
2652;SDS011;1336;48.692;9.144;2022-09-12T10:20:31;2.20;;;2.10;;
2652;SDS011;1336;48.692;9.144;2022-09-12T10:21:32;2.40;;;2.20;;
2652;SDS011;1336;48.692;9.144;2022-09-12T10:22:29;2.50;;;2.30;;
2652;SDS011;1336;48.692;9.144;2022-09-12T10:23:24;2.70;;;2.50;;
2652;SDS011;1336;48.692;9.144;2022-09-12T10:24:27;2.90;;;2.70;;
2652;SDS011;1336;48.692;9.144;2022-09-12T10:25:24;4.10;;;2.22;;
2652;SDS011;1336;48.692;9.144;2022-09-12T10:26:16;2.55;;;2.35;;
2652;SDS011;1336;48.692;9.144;2022-09-12T10:27:15;2.20;;;2.10;;
2652;SDS011;1336;48.692;9.144;2022-09-12T10:28:17;2.30;;;2.10;;
2652;SDS011;1336;48.692;9.144;2022-09-12T10:29:17;3.60;;;3.30;;
2652;SDS011;1336;48.692;9.144;2022-09-12T10:30:15;4.25;;;3.75;;
2652;SDS011;1336;48.692;9.144;2022-09-12T10:31:15;3.67;;;3.40;;
2652;SDS011;1336;48.692;9.144;2022-09-12T10:32:19;9.48;;;8.57;;
2652;SDS011;1336;48.692;9.144;2022-09-12T10:33:16;4.93;;;4.47;;
2652;SDS011;1336;48.692;9.144;2022-09-12T10:34:14;3.80;;;3.50;;
2652;SDS011;1336;48.692;9.144;2022-09-12T10:35:21;2.95;;;2.75;;
2652;SDS011;1336;48.692;9.144;2022-09-12T10:36:15;3.00;;;2.70;;
2652;SDS011;1336;48.692;9.144;2022-09-12T10:37:08;4.95;;;4.45;;
2652;SDS011;1336;48.692;9.144;2022-09-12T10:38:11;3.10;;;2.70;;
2652;SDS011;1336;48.692;9.144;2022-09-12T10:39:06;2.55;;;2.35;;
2652;SDS011;1336;48.692;9.144;2022-09-12T10:40:19;3.67;;;2.03;;